Hauptseite
METAR-TAF:

METAR-TAF

Flughäfen :

Fliegerhorst Holzdorf

Holzdorf, Deutschland

Breite: 51-46N, Länge: 013-11E, Höhe: 79 m

Beobachtung

Neuester Wetterbericht von vor 49 Minuten, um 16:20 UTC
Wind 4 kt aus Süd
Temperatur 1°C
Luftfeuchtigkeit 86%
Luftdruck 1021 hPa
Sichtweite 10 km oder mehr
Durchbrochene Bewölkung in der Höhe von 9000 ft

METAR: ETSH 301620Z 17004KT 9999 BKN090 01/M01 Q1021 BLACKBLU BLU

Zeit: 18:09 (17:09 UTC)

Prognose

Neuester Wetterbericht von vor 3 Stunden und 8 Minuten, um 14:01 UTC
Gültige Prognose vom 30 um 15 UTC bis 30 um 24 UTC
Wind 5 kt aus Süd
Sichtweite 10 km oder mehr
Aufgelockert bewölkt in der Höhe von 3000 ft
Durchbrochene Bewölkung in der Höhe von 9000 ft

TAF: ETSH 301401Z 3015/3024 18005KT 9999 NSW SCT030 BKN090

Wetterbeobachtungen und Prognosen von mehr als 4000 Flughäfen (METAR und TAF Bericht).

Die verfügbaren Stationen werden durch gelbe und rote Markierungen auf der Karte dargestellt.

Führen Sie die Maus auf sie, um den Namen der Station zu sehen.

Darauf klicken, um die Beobachtung von Wetterbeobachtungen und Prognosen zu sehen.

Um die Karte zu ändern : klicken Sie auf den grünen Tasten mit einem schwarzen Kreuz Zum Vergrößern, auf den grünen Button mit einem Gedankenstrich zu verkleinern, oder auf die grünen Pfeile für benachbarte Karten.


METAR-TAF: